createdAt,value
2018-03-08T00:02:25.845Z,21.36
2018-03-08T00:04:56.353Z,21.36
2018-03-08T00:07:26.103Z,21.36
2018-03-08T00:09:57.022Z,21.36
2018-03-08T00:12:26.645Z,21.35
2018-03-08T00:14:57.280Z,21.34
2018-03-08T00:17:27.488Z,21.34
2018-03-08T00:19:57.163Z,21.33
2018-03-08T00:22:27.743Z,21.32
2018-03-08T00:24:57.318Z,21.31
2018-03-08T00:27:26.945Z,21.29
2018-03-08T00:29:56.675Z,21.28
2018-03-08T00:32:26.389Z,21.27
2018-03-08T00:34:55.930Z,21.27
2018-03-08T00:37:25.398Z,21.26
2018-03-08T00:39:55.102Z,21.25
2018-03-08T00:42:25.428Z,21.24
2018-03-08T00:44:55.838Z,21.23
2018-03-08T00:47:25.531Z,21.22
2018-03-08T00:49:55.063Z,21.21
2018-03-08T00:52:24.669Z,21.17
2018-03-08T00:54:55.186Z,21.16
2018-03-08T00:57:24.776Z,21.15
2018-03-08T00:59:54.371Z,21.14
2018-03-08T01:02:24.026Z,21.13
2018-03-08T01:04:53.801Z,21.12
2018-03-08T01:07:23.543Z,21.11
2018-03-08T01:09:53.286Z,21.09
2018-03-08T01:16:15.940Z,21.05
2018-03-08T01:18:45.516Z,21.04
2018-03-08T01:21:15.351Z,21.03
2018-03-08T01:23:46.163Z,21.02
2018-03-08T01:26:15.785Z,21.00
2018-03-08T01:28:45.521Z,20.99
2018-03-08T01:31:15.008Z,20.98
2018-03-08T01:33:45.093Z,20.96
2018-03-08T01:36:30.730Z,20.96
2018-03-08T01:39:00.494Z,20.95
2018-03-08T01:41:30.780Z,20.95
2018-03-08T01:44:01.384Z,20.94
2018-03-08T01:46:31.104Z,20.92
2018-03-08T01:49:00.718Z,20.93
2018-03-08T01:51:30.414Z,20.90
2018-03-08T01:54:00.440Z,20.89
2018-03-08T01:56:31.071Z,20.89
2018-03-08T01:59:01.547Z,20.89
2018-03-08T02:01:32.241Z,20.89
2018-03-08T02:04:03.449Z,20.88
2018-03-08T02:06:33.039Z,20.85
2018-03-08T02:09:03.545Z,20.87
2018-03-08T02:11:34.151Z,20.86
2018-03-08T02:14:03.960Z,20.86
2018-03-08T02:16:33.544Z,20.85
2018-03-08T02:19:03.086Z,20.84
2018-03-08T02:21:32.583Z,20.83
2018-03-08T02:24:02.541Z,20.80
2018-03-08T02:26:32.309Z,20.79
2018-03-08T02:29:02.673Z,20.79
2018-03-08T02:31:32.300Z,20.79
2018-03-08T02:34:03.567Z,20.77
2018-03-08T02:36:33.271Z,20.77
2018-03-08T02:39:03.016Z,20.73
2018-03-08T02:41:33.409Z,20.74
2018-03-08T02:44:04.172Z,20.72
2018-03-08T02:46:33.890Z,20.70
2018-03-08T02:49:03.711Z,20.68
2018-03-08T02:51:33.338Z,20.67
2018-03-08T02:54:02.819Z,20.67
2018-03-08T02:56:33.387Z,20.67
2018-03-08T02:59:04.281Z,20.67
2018-03-08T03:01:33.992Z,20.65
2018-03-08T03:04:04.903Z,20.65
2018-03-08T03:06:35.209Z,20.64
2018-03-08T03:09:05.784Z,20.63
2018-03-08T03:11:36.151Z,20.63
2018-03-08T03:14:06.666Z,20.61
2018-03-08T03:16:37.039Z,20.62
2018-03-08T03:19:06.970Z,20.60
2018-03-08T03:21:36.488Z,20.58
2018-03-08T03:24:06.907Z,20.59
2018-03-08T03:26:36.412Z,20.56
2018-03-08T03:29:06.241Z,20.55
2018-03-08T03:31:36.148Z,20.56
2018-03-08T03:34:05.722Z,20.54
2018-03-08T03:36:35.461Z,20.54
2018-03-08T03:39:05.732Z,20.54
2018-03-08T03:41:35.475Z,20.52
2018-03-08T03:44:05.166Z,20.52
2018-03-08T03:46:35.493Z,20.52
2018-03-08T03:49:05.455Z,20.51
2018-03-08T03:51:35.694Z,20.51
2018-03-08T03:54:05.615Z,20.51
2018-03-08T03:56:35.545Z,20.50
2018-03-08T03:59:06.449Z,20.47
2018-03-08T04:01:36.155Z,20.50
2018-03-08T04:04:05.867Z,20.48
2018-03-08T04:06:35.465Z,20.46
2018-03-08T04:09:05.258Z,20.48
2018-03-08T04:11:34.956Z,20.46
2018-03-08T04:14:04.715Z,20.47
2018-03-08T04:16:34.688Z,20.44
2018-03-08T04:19:05.435Z,20.43
2018-03-08T04:21:35.173Z,20.42
2018-03-08T04:24:05.688Z,20.41
2018-03-08T04:26:35.333Z,20.39
2018-03-08T04:29:04.882Z,20.39
2018-03-08T04:31:34.734Z,20.39
2018-03-08T04:34:04.841Z,20.39
2018-03-08T04:36:34.376Z,20.36
2018-03-08T04:39:04.945Z,20.38
2018-03-08T04:41:35.802Z,20.38
2018-03-08T04:44:05.354Z,20.35
2018-03-08T04:46:36.758Z,20.36
2018-03-08T04:49:06.495Z,20.33
2018-03-08T04:51:36.036Z,20.33
2018-03-08T04:54:06.331Z,20.34
2018-03-08T04:56:36.740Z,20.32
2018-03-08T04:59:07.161Z,20.32
2018-03-08T05:01:37.476Z,20.31
2018-03-08T05:04:07.057Z,20.29
2018-03-08T05:06:36.899Z,20.28
2018-03-08T05:09:06.553Z,20.28
2018-03-08T05:11:38.010Z,20.28
2018-03-08T05:14:07.687Z,20.26
2018-03-08T05:16:38.433Z,20.28
2018-03-08T05:19:08.402Z,20.26
2018-03-08T05:21:37.894Z,20.25
2018-03-08T05:24:07.360Z,20.24
2018-03-08T05:26:37.171Z,20.23
2018-03-08T05:29:06.693Z,20.23
2018-03-08T05:31:36.480Z,20.22
2018-03-08T05:34:06.910Z,20.23
2018-03-08T05:36:36.738Z,20.22
2018-03-08T05:39:06.327Z,20.21
2018-03-08T05:41:35.806Z,20.20
2018-03-08T05:44:06.842Z,20.19
2018-03-08T05:46:37.347Z,20.20
2018-03-08T05:49:06.886Z,20.18
2018-03-08T05:51:36.534Z,20.17
2018-03-08T05:54:06.198Z,20.16
2018-03-08T05:56:35.906Z,20.16
2018-03-08T05:59:05.397Z,20.14
2018-03-08T06:01:36.004Z,20.16
2018-03-08T06:04:05.585Z,20.13
2018-03-08T06:06:36.414Z,20.15
2018-03-08T06:09:08.458Z,20.14
2018-03-08T06:11:38.826Z,20.13
2018-03-08T06:14:10.243Z,20.15
2018-03-08T06:16:40.618Z,20.13
2018-03-08T06:19:12.814Z,20.14
2018-03-08T06:21:43.651Z,20.15
2018-03-08T06:24:14.843Z,20.16
2018-03-08T06:29:25.560Z,20.16
2018-03-08T06:34:37.349Z,20.17
2018-03-08T06:37:09.075Z,20.13
2018-03-08T06:39:43.051Z,20.08
2018-03-08T06:42:13.829Z,20.09
2018-03-08T06:44:45.218Z,20.07
2018-03-08T06:47:17.763Z,20.07
2018-03-08T06:49:48.422Z,20.07
2018-03-08T06:52:18.663Z,20.07
2018-03-08T06:54:48.314Z,19.43
2018-03-08T06:57:17.835Z,18.96
2018-03-08T06:59:47.428Z,18.87
2018-03-08T07:02:17.394Z,18.91
2018-03-08T07:04:48.951Z,19.04
2018-03-08T07:07:19.081Z,19.16
2018-03-08T07:09:50.572Z,19.25
2018-03-08T07:12:20.604Z,19.34
2018-03-08T07:14:50.749Z,19.41
2018-03-08T07:17:20.918Z,19.48
2018-03-08T07:19:51.339Z,19.50
2018-03-08T07:22:23.350Z,19.57
2018-03-08T07:24:53.172Z,19.59
2018-03-08T07:27:32.126Z,19.65
2018-03-08T07:30:03.836Z,19.66
2018-03-08T07:32:34.246Z,19.65
2018-03-08T07:35:05.552Z,19.67
2018-03-08T07:37:36.148Z,19.70
2018-03-08T07:40:08.621Z,19.73
2018-03-08T07:42:57.862Z,19.80
2018-03-08T07:45:32.364Z,19.84
2018-03-08T07:48:02.701Z,19.88
2018-03-08T07:50:32.934Z,19.93
2018-03-08T07:53:03.594Z,19.98
2018-03-08T07:55:33.321Z,20.01
2018-03-08T07:58:02.889Z,20.05
2018-03-08T08:00:32.930Z,20.09
2018-03-08T08:03:02.631Z,20.13
2018-03-08T08:05:50.487Z,20.17
2018-03-08T08:11:32.661Z,20.26
2018-03-08T08:14:02.417Z,20.28
2018-03-08T08:16:32.074Z,20.28
2018-03-08T08:19:02.046Z,20.27
2018-03-08T08:21:31.742Z,20.26
2018-03-08T08:24:01.346Z,20.25
2018-03-08T08:26:31.401Z,20.25
2018-03-08T08:29:01.132Z,20.24
2018-03-08T08:31:30.947Z,20.26
2018-03-08T08:34:00.749Z,20.24
2018-03-08T08:36:30.462Z,20.24
2018-03-08T08:39:01.279Z,20.27
2018-03-08T08:41:31.976Z,20.29
2018-03-08T08:50:25.939Z,20.35
2018-03-08T08:52:57.109Z,20.35
2018-03-08T08:55:30.100Z,20.34
2018-03-08T08:58:02.174Z,20.35
2018-03-08T09:00:32.909Z,20.36
2018-03-08T09:03:02.872Z,20.35
2018-03-08T09:05:32.537Z,20.36
2018-03-08T09:08:02.395Z,20.37
2018-03-08T09:10:33.097Z,20.40
2018-03-08T09:13:03.834Z,20.37
2018-03-08T09:15:33.376Z,20.37
2018-03-08T09:18:04.126Z,20.40
2018-03-08T09:20:34.490Z,20.41
2018-03-08T09:23:05.034Z,20.41
2018-03-08T09:25:34.766Z,20.41
2018-03-08T09:28:05.178Z,20.44
2018-03-08T09:30:34.764Z,20.35
2018-03-08T09:33:05.119Z,20.18
2018-03-08T09:35:35.015Z,20.05
2018-03-08T09:38:04.929Z,20.05
2018-03-08T09:40:35.319Z,20.06
2018-03-08T09:43:05.260Z,20.08
2018-03-08T09:45:35.238Z,20.08
2018-03-08T09:48:05.751Z,20.10
2018-03-08T09:50:35.418Z,20.10
2018-03-08T09:53:05.648Z,20.12
2018-03-08T09:55:35.977Z,20.14
2018-03-08T09:58:05.476Z,20.13
2018-03-08T10:00:35.232Z,20.13
2018-03-08T10:03:05.118Z,20.15
2018-03-08T10:05:36.030Z,20.16
2018-03-08T10:08:07.243Z,20.16
2018-03-08T10:10:37.695Z,20.17
2018-03-08T10:13:08.410Z,20.17
2018-03-08T10:15:39.659Z,20.18
2018-03-08T10:18:09.242Z,20.16
2018-03-08T10:20:38.952Z,20.16
2018-03-08T10:23:09.486Z,20.17
2018-03-08T10:25:39.155Z,20.16
2018-03-08T10:28:09.478Z,20.16
2018-03-08T10:30:39.815Z,20.16
2018-03-08T10:33:09.559Z,20.14
2018-03-08T10:35:39.366Z,20.14
2018-03-08T10:38:08.848Z,20.13
2018-03-08T10:40:45.376Z,20.13
2018-03-08T10:43:08.200Z,20.13
2018-03-08T10:45:37.751Z,20.13
2018-03-08T10:48:08.103Z,20.13
2018-03-08T10:50:38.481Z,20.11
2018-03-08T10:53:09.388Z,20.11
2018-03-08T10:55:39.676Z,20.11
2018-03-08T10:58:16.425Z,20.11
2018-03-08T11:00:54.636Z,20.11
2018-03-08T11:03:30.250Z,20.10
2018-03-08T14:21:42.030Z,21.14
2018-03-08T14:24:14.292Z,21.02
2018-03-08T14:26:45.593Z,20.92
2018-03-08T14:29:17.188Z,20.84
2018-03-08T14:31:49.206Z,20.77
2018-03-08T16:04:58.412Z,12.98
2018-03-08T16:20:25.546Z,12.69
2018-03-08T16:22:56.767Z,12.63
2018-03-08T16:25:27.339Z,12.64
2018-03-08T16:27:59.099Z,12.62
2018-03-08T16:30:29.419Z,12.62
2018-03-08T16:32:59.814Z,12.55
2018-03-08T16:35:32.294Z,12.53
2018-03-08T16:38:11.042Z,12.53
2018-03-08T16:40:43.227Z,12.47
2018-03-08T16:43:16.027Z,12.46
2018-03-08T16:45:54.126Z,12.42
2018-03-08T16:48:31.319Z,12.38
2018-03-08T16:51:07.253Z,12.35
2018-03-08T16:53:41.392Z,12.25
2018-03-08T16:56:22.361Z,12.21
2018-03-08T16:58:56.857Z,12.17
2018-03-08T17:01:33.450Z,12.14
2018-03-08T17:06:59.228Z,12.08
2018-03-08T17:09:31.248Z,12.03
2018-03-08T17:12:03.722Z,11.97
2018-03-08T17:14:36.379Z,11.93
2018-03-08T17:17:10.558Z,11.92
2018-03-08T17:19:46.399Z,11.86
2018-03-08T17:22:23.222Z,11.82
2018-03-08T17:24:56.911Z,11.78
2018-03-08T17:27:39.649Z,11.75
2018-03-08T17:33:08.793Z,11.67
2018-03-08T17:35:42.701Z,11.63
2018-03-08T17:38:18.166Z,11.63
2018-03-08T17:43:28.900Z,11.58
2018-03-08T17:46:03.055Z,11.52
2018-03-08T17:48:37.947Z,11.50
2018-03-08T17:51:29.014Z,11.49
2018-03-08T17:54:12.572Z,11.47
2018-03-08T17:56:59.319Z,11.44
2018-03-08T17:59:33.077Z,11.42
2018-03-08T18:02:08.512Z,11.36
2018-03-08T18:04:43.904Z,11.31
2018-03-08T18:07:17.826Z,11.26
2018-03-08T18:12:58.492Z,11.18
2018-03-08T18:15:40.880Z,11.17
2018-03-08T18:18:18.770Z,11.15
2018-03-08T18:20:55.692Z,11.08
2018-03-08T18:23:33.053Z,11.05
2018-03-08T18:26:21.893Z,11.00
2018-03-08T18:28:54.122Z,10.96
2018-03-08T18:31:30.363Z,10.95
2018-03-08T18:34:06.890Z,10.92
2018-03-08T18:36:42.870Z,10.83
2018-03-08T18:39:16.438Z,10.78
2018-03-08T18:41:51.220Z,10.75
2018-03-08T18:44:27.764Z,10.67
2018-03-08T18:47:04.185Z,10.62
2018-03-08T18:49:41.163Z,10.59
2018-03-08T18:52:18.758Z,10.56
2018-03-08T18:54:52.316Z,10.55
2018-03-08T18:57:29.728Z,10.49
2018-03-08T19:00:02.967Z,10.49
2018-03-08T19:02:38.408Z,10.53
2018-03-08T19:07:59.724Z,10.51
2018-03-08T19:10:33.869Z,10.54
2018-03-08T19:13:11.166Z,10.57
2018-03-08T19:15:46.572Z,10.53
2018-03-08T19:18:21.854Z,10.56
2018-03-08T19:20:57.267Z,10.56
2018-03-08T19:23:31.312Z,10.58
2018-03-08T19:26:07.921Z,10.58
2018-03-08T19:28:45.812Z,10.58
2018-03-08T19:31:16.513Z,10.57
2018-03-08T19:33:51.908Z,10.58
2018-03-08T19:36:30.870Z,10.54
2018-03-08T19:39:04.145Z,10.57
2018-03-08T19:41:37.293Z,10.56
2018-03-08T19:44:14.346Z,10.56
2018-03-08T19:46:50.951Z,10.51
